sensor_id;sensor_type;location;lat;lon;timestamp;temperature;humidity
45319;DHT22;31057;48.498;32.260;2023-06-22T00:01:30;17.50;99.90
45319;DHT22;31057;48.498;32.260;2023-06-22T00:03:32;17.50;99.90
45319;DHT22;31057;48.498;32.260;2023-06-22T00:05:33;17.50;99.90
45319;DHT22;31057;48.498;32.260;2023-06-22T00:07:35;17.50;99.90
45319;DHT22;31057;48.498;32.260;2023-06-22T00:09:37;17.50;99.90
45319;DHT22;31057;48.498;32.260;2023-06-22T00:11:39;17.50;99.90
45319;DHT22;31057;48.498;32.260;2023-06-22T00:13:41;17.40;99.90
45319;DHT22;31057;48.498;32.260;2023-06-22T00:15:43;17.50;99.90
45319;DHT22;31057;48.498;32.260;2023-06-22T00:17:45;17.50;99.90
45319;DHT22;31057;48.498;32.260;2023-06-22T00:19:47;17.50;99.90
45319;DHT22;31057;48.498;32.260;2023-06-22T00:21:50;17.50;99.90
45319;DHT22;31057;48.498;32.260;2023-06-22T00:23:54;17.50;99.90
45319;DHT22;31057;48.498;32.260;2023-06-22T00:25:57;17.50;99.90
45319;DHT22;31057;48.498;32.260;2023-06-22T00:27:58;17.40;99.90
45319;DHT22;31057;48.498;32.260;2023-06-22T00:30:00;17.40;99.90
45319;DHT22;31057;48.498;32.260;2023-06-22T00:32:02;17.30;99.90
45319;DHT22;31057;48.498;32.260;2023-06-22T00:34:05;17.20;99.90
45319;DHT22;31057;48.498;32.260;2023-06-22T00:36:08;17.10;99.90
45319;DHT22;31057;48.498;32.260;2023-06-22T00:38:10;17.10;99.90
45319;DHT22;31057;48.498;32.260;2023-06-22T00:40:12;17.10;99.90
45319;DHT22;31057;48.498;32.260;2023-06-22T00:42:14;16.90;99.90
45319;DHT22;31057;48.498;32.260;2023-06-22T00:44:16;16.80;99.90
45319;DHT22;31057;48.498;32.260;2023-06-22T00:46:18;16.80;99.90
45319;DHT22;31057;48.498;32.260;2023-06-22T00:48:20;16.80;99.90
45319;DHT22;31057;48.498;32.260;2023-06-22T00:50:22;16.80;99.90
45319;DHT22;31057;48.498;32.260;2023-06-22T00:52:24;17.00;99.90
45319;DHT22;31057;48.498;32.260;2023-06-22T00:54:30;16.90;99.90
45319;DHT22;31057;48.498;32.260;2023-06-22T00:56:32;16.90;99.90
45319;DHT22;31057;48.498;32.260;2023-06-22T00:58:35;16.80;99.90
45319;DHT22;31057;48.498;32.260;2023-06-22T01:00:37;16.80;99.90
45319;DHT22;31057;48.498;32.260;2023-06-22T01:02:39;16.80;99.90
45319;DHT22;31057;48.498;32.260;2023-06-22T01:04:43;16.80;99.90
45319;DHT22;31057;48.498;32.260;2023-06-22T01:06:52;16.80;99.90
45319;DHT22;31057;48.498;32.260;2023-06-22T01:09:03;16.80;99.90
45319;DHT22;31057;48.498;32.260;2023-06-22T01:11:09;16.80;99.90
45319;DHT22;31057;48.498;32.260;2023-06-22T01:15:25;16.80;99.90
45319;DHT22;31057;48.498;32.260;2023-06-22T01:17:29;16.90;99.90
45319;DHT22;31057;48.498;32.260;2023-06-22T01:19:38;16.90;99.90
45319;DHT22;31057;48.498;32.260;2023-06-22T01:21:43;17.00;99.90
45319;DHT22;31057;48.498;32.260;2023-06-22T01:25:50;16.70;99.90
45319;DHT22;31057;48.498;32.260;2023-06-22T01:30:18;16.70;99.90
45319;DHT22;31057;48.498;32.260;2023-06-22T01:32:20;16.70;99.90
45319;DHT22;31057;48.498;32.260;2023-06-22T01:34:23;16.70;99.90
45319;DHT22;31057;48.498;32.260;2023-06-22T01:36:25;16.60;99.90
45319;DHT22;31057;48.498;32.260;2023-06-22T01:38:28;16.60;99.90
45319;DHT22;31057;48.498;32.260;2023-06-22T01:40:30;16.60;99.90
45319;DHT22;31057;48.498;32.260;2023-06-22T01:42:33;16.60;99.90
45319;DHT22;31057;48.498;32.260;2023-06-22T01:44:35;16.40;99.90
45319;DHT22;31057;48.498;32.260;2023-06-22T01:46:38;16.40;99.90
45319;DHT22;31057;48.498;32.260;2023-06-22T01:48:40;16.40;99.90
45319;DHT22;31057;48.498;32.260;2023-06-22T01:50:42;16.40;99.90
45319;DHT22;31057;48.498;32.260;2023-06-22T01:52:44;16.40;99.90
45319;DHT22;31057;48.498;32.260;2023-06-22T01:54:47;16.30;99.90
45319;DHT22;31057;48.498;32.260;2023-06-22T01:56:49;16.40;99.90
45319;DHT22;31057;48.498;32.260;2023-06-22T01:59:54;16.50;99.90
45319;DHT22;31057;48.498;32.260;2023-06-22T02:01:28;16.60;99.90
45319;DHT22;31057;48.498;32.260;2023-06-22T02:03:34;16.60;99.90
45319;DHT22;31057;48.498;32.260;2023-06-22T02:05:38;16.70;99.90
45319;DHT22;31057;48.498;32.260;2023-06-22T02:07:49;16.80;99.90
45319;DHT22;31057;48.498;32.260;2023-06-22T02:09:52;16.80;99.90
45319;DHT22;31057;48.498;32.260;2023-06-22T02:11:54;16.90;99.90
45319;DHT22;31057;48.498;32.260;2023-06-22T02:13:57;17.00;99.90
45319;DHT22;31057;48.498;32.260;2023-06-22T02:16:00;16.90;99.90
45319;DHT22;31057;48.498;32.260;2023-06-22T02:18:02;16.80;99.90
45319;DHT22;31057;48.498;32.260;2023-06-22T02:20:04;16.70;99.90
45319;DHT22;31057;48.498;32.260;2023-06-22T02:22:10;16.50;99.90
45319;DHT22;31057;48.498;32.260;2023-06-22T02:24:12;16.60;99.90
45319;DHT22;31057;48.498;32.260;2023-06-22T02:26:15;16.60;99.90
45319;DHT22;31057;48.498;32.260;2023-06-22T02:28:17;16.60;99.90
45319;DHT22;31057;48.498;32.260;2023-06-22T02:30:19;16.70;99.90
45319;DHT22;31057;48.498;32.260;2023-06-22T02:32:21;17.20;99.90
45319;DHT22;31057;48.498;32.260;2023-06-22T02:34:22;17.60;99.90
45319;DHT22;31057;48.498;32.260;2023-06-22T02:36:25;18.00;99.90
45319;DHT22;31057;48.498;32.260;2023-06-22T02:38:28;18.00;99.90
45319;DHT22;31057;48.498;32.260;2023-06-22T02:40:34;17.60;99.90
45319;DHT22;31057;48.498;32.260;2023-06-22T02:42:37;17.30;99.90
45319;DHT22;31057;48.498;32.260;2023-06-22T02:44:39;17.30;99.90
45319;DHT22;31057;48.498;32.260;2023-06-22T02:46:40;17.40;99.90
45319;DHT22;31057;48.498;32.260;2023-06-22T02:48:42;18.10;99.90
45319;DHT22;31057;48.498;32.260;2023-06-22T02:50:47;17.90;99.90
45319;DHT22;31057;48.498;32.260;2023-06-22T02:52:49;17.40;99.90
45319;DHT22;31057;48.498;32.260;2023-06-22T02:54:51;16.90;99.90
45319;DHT22;31057;48.498;32.260;2023-06-22T02:56:53;16.80;99.90
45319;DHT22;31057;48.498;32.260;2023-06-22T02:58:55;16.90;99.90
45319;DHT22;31057;48.498;32.260;2023-06-22T03:01:02;17.40;99.90
45319;DHT22;31057;48.498;32.260;2023-06-22T03:03:06;18.60;99.90
45319;DHT22;31057;48.498;32.260;2023-06-22T03:05:08;19.00;99.90
45319;DHT22;31057;48.498;32.260;2023-06-22T03:07:15;19.50;99.90
45319;DHT22;31057;48.498;32.260;2023-06-22T03:09:17;20.10;99.90
45319;DHT22;31057;48.498;32.260;2023-06-22T03:11:18;20.50;99.90
45319;DHT22;31057;48.498;32.260;2023-06-22T03:13:20;20.60;99.90
45319;DHT22;31057;48.498;32.260;2023-06-22T03:15:22;20.80;99.90
45319;DHT22;31057;48.498;32.260;2023-06-22T03:17:24;21.10;99.90
45319;DHT22;31057;48.498;32.260;2023-06-22T03:19:26;20.80;99.90
45319;DHT22;31057;48.498;32.260;2023-06-22T03:21:29;20.40;99.90
45319;DHT22;31057;48.498;32.260;2023-06-22T03:23:31;19.60;99.90
45319;DHT22;31057;48.498;32.260;2023-06-22T03:25:34;18.90;99.90
45319;DHT22;31057;48.498;32.260;2023-06-22T03:27:36;18.60;99.90
45319;DHT22;31057;48.498;32.260;2023-06-22T03:29:38;18.30;99.90
45319;DHT22;31057;48.498;32.260;2023-06-22T03:31:40;18.60;99.90
45319;DHT22;31057;48.498;32.260;2023-06-22T03:33:42;18.50;99.90
45319;DHT22;31057;48.498;32.260;2023-06-22T03:35:44;18.40;99.90
45319;DHT22;31057;48.498;32.260;2023-06-22T03:37:46;18.50;99.90
45319;DHT22;31057;48.498;32.260;2023-06-22T03:39:47;18.60;99.90
45319;DHT22;31057;48.498;32.260;2023-06-22T03:41:49;18.80;99.90
45319;DHT22;31057;48.498;32.260;2023-06-22T03:43:51;18.90;99.90
45319;DHT22;31057;48.498;32.260;2023-06-22T03:45:53;19.00;99.90
45319;DHT22;31057;48.498;32.260;2023-06-22T03:47:55;19.20;99.90
45319;DHT22;31057;48.498;32.260;2023-06-22T03:49:56;19.30;99.90
45319;DHT22;31057;48.498;32.260;2023-06-22T03:51:59;19.40;99.90
45319;DHT22;31057;48.498;32.260;2023-06-22T03:54:01;19.40;99.90
45319;DHT22;31057;48.498;32.260;2023-06-22T03:56:02;19.60;99.90
45319;DHT22;31057;48.498;32.260;2023-06-22T03:58:04;19.60;99.90
45319;DHT22;31057;48.498;32.260;2023-06-22T04:00:07;19.80;99.90
45319;DHT22;31057;48.498;32.260;2023-06-22T04:02:09;19.90;99.90
45319;DHT22;31057;48.498;32.260;2023-06-22T04:04:11;20.00;99.90
45319;DHT22;31057;48.498;32.260;2023-06-22T04:06:14;20.00;99.90
45319;DHT22;31057;48.498;32.260;2023-06-22T04:08:16;20.00;99.90
45319;DHT22;31057;48.498;32.260;2023-06-22T04:10:18;20.10;99.90
45319;DHT22;31057;48.498;32.260;2023-06-22T04:12:20;20.10;99.90
45319;DHT22;31057;48.498;32.260;2023-06-22T04:14:21;20.30;99.90
45319;DHT22;31057;48.498;32.260;2023-06-22T04:16:23;20.30;99.90
45319;DHT22;31057;48.498;32.260;2023-06-22T04:18:25;20.40;99.90
45319;DHT22;31057;48.498;32.260;2023-06-22T04:20:27;20.60;99.90
45319;DHT22;31057;48.498;32.260;2023-06-22T04:22:30;20.70;99.90
45319;DHT22;31057;48.498;32.260;2023-06-22T04:24:32;20.80;99.90
45319;DHT22;31057;48.498;32.260;2023-06-22T04:26:34;20.90;99.90
45319;DHT22;31057;48.498;32.260;2023-06-22T04:28:38;21.00;99.90
45319;DHT22;31057;48.498;32.260;2023-06-22T04:30:40;21.10;99.90
45319;DHT22;31057;48.498;32.260;2023-06-22T04:32:48;21.10;99.90
45319;DHT22;31057;48.498;32.260;2023-06-22T04:34:59;21.10;99.90
45319;DHT22;31057;48.498;32.260;2023-06-22T04:37:06;21.20;99.90
45319;DHT22;31057;48.498;32.260;2023-06-22T04:39:08;21.30;99.90
45319;DHT22;31057;48.498;32.260;2023-06-22T04:41:11;21.40;99.90
45319;DHT22;31057;48.498;32.260;2023-06-22T04:43:25;21.50;99.90
45319;DHT22;31057;48.498;32.260;2023-06-22T04:45:32;21.70;99.90
45319;DHT22;31057;48.498;32.260;2023-06-22T04:47:34;21.90;99.90
45319;DHT22;31057;48.498;32.260;2023-06-22T04:49:36;21.90;99.90
45319;DHT22;31057;48.498;32.260;2023-06-22T04:51:44;21.80;99.90
45319;DHT22;31057;48.498;32.260;2023-06-22T04:53:46;21.70;99.90
45319;DHT22;31057;48.498;32.260;2023-06-22T04:55:48;21.90;99.90
45319;DHT22;31057;48.498;32.260;2023-06-22T04:57:51;21.90;99.90
45319;DHT22;31057;48.498;32.260;2023-06-22T04:59:52;22.10;99.90
45319;DHT22;31057;48.498;32.260;2023-06-22T05:01:54;22.20;99.90
45319;DHT22;31057;48.498;32.260;2023-06-22T05:03:57;22.30;99.90
45319;DHT22;31057;48.498;32.260;2023-06-22T05:05:59;22.50;99.90
45319;DHT22;31057;48.498;32.260;2023-06-22T05:08:01;22.60;99.90
45319;DHT22;31057;48.498;32.260;2023-06-22T05:10:03;22.50;99.90
45319;DHT22;31057;48.498;32.260;2023-06-22T05:12:05;22.70;99.90
45319;DHT22;31057;48.498;32.260;2023-06-22T05:14:11;22.80;99.90
45319;DHT22;31057;48.498;32.260;2023-06-22T05:16:13;22.70;99.90
45319;DHT22;31057;48.498;32.260;2023-06-22T05:18:14;22.80;99.90
45319;DHT22;31057;48.498;32.260;2023-06-22T05:20:16;23.00;99.90
45319;DHT22;31057;48.498;32.260;2023-06-22T05:22:19;23.10;99.90
45319;DHT22;31057;48.498;32.260;2023-06-22T05:24:21;23.10;99.90
45319;DHT22;31057;48.498;32.260;2023-06-22T05:26:23;23.00;99.90
45319;DHT22;31057;48.498;32.260;2023-06-22T05:28:25;23.00;99.90
45319;DHT22;31057;48.498;32.260;2023-06-22T05:30:27;23.10;99.90
45319;DHT22;31057;48.498;32.260;2023-06-22T05:32:30;23.20;99.90
45319;DHT22;31057;48.498;32.260;2023-06-22T05:34:32;23.40;99.90
45319;DHT22;31057;48.498;32.260;2023-06-22T05:36:34;23.60;99.90
45319;DHT22;31057;48.498;32.260;2023-06-22T05:38:36;23.60;99.90
45319;DHT22;31057;48.498;32.260;2023-06-22T05:40:38;23.60;99.90
45319;DHT22;31057;48.498;32.260;2023-06-22T05:42:39;23.80;99.90
45319;DHT22;31057;48.498;32.260;2023-06-22T05:44:41;24.00;99.90
45319;DHT22;31057;48.498;32.260;2023-06-22T05:46:44;24.10;99.90
45319;DHT22;31057;48.498;32.260;2023-06-22T05:48:47;24.00;99.90
45319;DHT22;31057;48.498;32.260;2023-06-22T05:50:49;24.00;99.90
45319;DHT22;31057;48.498;32.260;2023-06-22T05:52:51;24.00;99.90
45319;DHT22;31057;48.498;32.260;2023-06-22T05:54:53;24.00;99.90
45319;DHT22;31057;48.498;32.260;2023-06-22T05:56:55;24.00;99.90
45319;DHT22;31057;48.498;32.260;2023-06-22T05:58:56;24.00;99.90
45319;DHT22;31057;48.498;32.260;2023-06-22T06:00:58;23.80;99.90
45319;DHT22;31057;48.498;32.260;2023-06-22T06:03:02;23.90;99.90
45319;DHT22;31057;48.498;32.260;2023-06-22T06:05:05;24.20;99.90
45319;DHT22;31057;48.498;32.260;2023-06-22T06:07:08;24.50;99.90
45319;DHT22;31057;48.498;32.260;2023-06-22T06:09:10;24.40;99.90
45319;DHT22;31057;48.498;32.260;2023-06-22T06:11:13;24.20;99.90
45319;DHT22;31057;48.498;32.260;2023-06-22T06:13:15;24.50;99.90
45319;DHT22;31057;48.498;32.260;2023-06-22T06:15:16;24.60;99.90
45319;DHT22;31057;48.498;32.260;2023-06-22T06:17:18;24.70;99.90
45319;DHT22;31057;48.498;32.260;2023-06-22T06:19:20;24.80;99.90
45319;DHT22;31057;48.498;32.260;2023-06-22T06:21:22;24.90;99.90
45319;DHT22;31057;48.498;32.260;2023-06-22T06:23:24;25.00;99.90
45319;DHT22;31057;48.498;32.260;2023-06-22T06:25:26;25.10;99.90
45319;DHT22;31057;48.498;32.260;2023-06-22T06:27:27;25.00;99.90
45319;DHT22;31057;48.498;32.260;2023-06-22T06:29:31;25.00;99.90
45319;DHT22;31057;48.498;32.260;2023-06-22T06:31:33;24.90;99.90
45319;DHT22;31057;48.498;32.260;2023-06-22T06:33:35;25.00;99.90
45319;DHT22;31057;48.498;32.260;2023-06-22T06:35:37;24.90;99.90
45319;DHT22;31057;48.498;32.260;2023-06-22T06:37:40;25.10;99.90
45319;DHT22;31057;48.498;32.260;2023-06-22T06:39:42;25.30;99.90
45319;DHT22;31057;48.498;32.260;2023-06-22T06:41:45;25.30;99.90
45319;DHT22;31057;48.498;32.260;2023-06-22T06:43:47;25.60;99.90
45319;DHT22;31057;48.498;32.260;2023-06-22T06:45:50;25.60;99.90
45319;DHT22;31057;48.498;32.260;2023-06-22T06:47:53;25.60;99.90
45319;DHT22;31057;48.498;32.260;2023-06-22T06:49:55;25.50;99.90
45319;DHT22;31057;48.498;32.260;2023-06-22T06:51:57;25.60;99.90
45319;DHT22;31057;48.498;32.260;2023-06-22T06:53:58;25.70;99.90
45319;DHT22;31057;48.498;32.260;2023-06-22T06:56:00;25.80;99.90
45319;DHT22;31057;48.498;32.260;2023-06-22T06:58:02;25.80;99.90
45319;DHT22;31057;48.498;32.260;2023-06-22T07:00:06;25.80;99.90
45319;DHT22;31057;48.498;32.260;2023-06-22T07:02:11;25.80;99.90
45319;DHT22;31057;48.498;32.260;2023-06-22T07:04:13;25.90;99.90
45319;DHT22;31057;48.498;32.260;2023-06-22T07:06:15;26.00;99.90
45319;DHT22;31057;48.498;32.260;2023-06-22T07:08:18;26.20;99.90
45319;DHT22;31057;48.498;32.260;2023-06-22T07:10:19;26.10;99.90
45319;DHT22;31057;48.498;32.260;2023-06-22T07:12:21;26.20;99.90
45319;DHT22;31057;48.498;32.260;2023-06-22T07:14:23;26.30;99.90
45319;DHT22;31057;48.498;32.260;2023-06-22T07:16:25;26.40;99.90
45319;DHT22;31057;48.498;32.260;2023-06-22T07:18:29;26.00;99.90
45319;DHT22;31057;48.498;32.260;2023-06-22T07:20:32;26.30;99.90
45319;DHT22;31057;48.498;32.260;2023-06-22T07:22:34;26.40;99.90
45319;DHT22;31057;48.498;32.260;2023-06-22T07:24:36;26.40;99.90
45319;DHT22;31057;48.498;32.260;2023-06-22T07:26:38;26.40;99.90
45319;DHT22;31057;48.498;32.260;2023-06-22T07:28:40;26.60;99.90
45319;DHT22;31057;48.498;32.260;2023-06-22T07:30:42;26.60;99.90
45319;DHT22;31057;48.498;32.260;2023-06-22T07:32:44;26.80;99.90
45319;DHT22;31057;48.498;32.260;2023-06-22T07:34:46;26.80;99.90
45319;DHT22;31057;48.498;32.260;2023-06-22T07:36:48;26.40;99.90
45319;DHT22;31057;48.498;32.260;2023-06-22T07:38:49;26.40;99.90
45319;DHT22;31057;48.498;32.260;2023-06-22T07:40:51;26.40;99.90
45319;DHT22;31057;48.498;32.260;2023-06-22T07:42:54;26.70;99.90
45319;DHT22;31057;48.498;32.260;2023-06-22T07:44:56;26.90;99.90
45319;DHT22;31057;48.498;32.260;2023-06-22T07:46:58;27.00;99.90
45319;DHT22;31057;48.498;32.260;2023-06-22T07:49:00;27.00;99.90
45319;DHT22;31057;48.498;32.260;2023-06-22T07:51:02;27.20;99.90
45319;DHT22;31057;48.498;32.260;2023-06-22T07:53:04;27.20;99.90
45319;DHT22;31057;48.498;32.260;2023-06-22T07:55:06;27.30;99.90
45319;DHT22;31057;48.498;32.260;2023-06-22T07:57:08;27.40;99.90
45319;DHT22;31057;48.498;32.260;2023-06-22T07:59:10;26.90;99.90
45319;DHT22;31057;48.498;32.260;2023-06-22T08:01:12;26.70;99.90
45319;DHT22;31057;48.498;32.260;2023-06-22T08:03:14;27.00;99.90
45319;DHT22;31057;48.498;32.260;2023-06-22T08:05:16;27.40;99.90
45319;DHT22;31057;48.498;32.260;2023-06-22T08:07:23;27.70;99.90
45319;DHT22;31057;48.498;32.260;2023-06-22T08:09:25;27.40;99.90
45319;DHT22;31057;48.498;32.260;2023-06-22T08:11:27;27.40;99.90
45319;DHT22;31057;48.498;32.260;2023-06-22T08:13:28;28.40;99.90
45319;DHT22;31057;48.498;32.260;2023-06-22T08:15:30;28.40;99.90
45319;DHT22;31057;48.498;32.260;2023-06-22T08:17:33;28.10;99.90
45319;DHT22;31057;48.498;32.260;2023-06-22T08:19:35;27.90;99.90
45319;DHT22;31057;48.498;32.260;2023-06-22T08:21:38;28.20;99.90
45319;DHT22;31057;48.498;32.260;2023-06-22T08:23:40;27.70;99.90
45319;DHT22;31057;48.498;32.260;2023-06-22T08:25:42;27.40;99.90
45319;DHT22;31057;48.498;32.260;2023-06-22T08:27:47;27.70;99.90
45319;DHT22;31057;48.498;32.260;2023-06-22T08:29:49;27.80;99.90
45319;DHT22;31057;48.498;32.260;2023-06-22T08:31:52;28.40;99.90
45319;DHT22;31057;48.498;32.260;2023-06-22T08:33:54;28.10;99.90
45319;DHT22;31057;48.498;32.260;2023-06-22T08:35:56;27.90;99.90
45319;DHT22;31057;48.498;32.260;2023-06-22T08:37:57;27.70;99.90
45319;DHT22;31057;48.498;32.260;2023-06-22T08:40:05;28.30;99.90
45319;DHT22;31057;48.498;32.260;2023-06-22T08:42:07;29.00;99.90
45319;DHT22;31057;48.498;32.260;2023-06-22T08:44:09;28.90;99.90
45319;DHT22;31057;48.498;32.260;2023-06-22T08:46:11;28.40;99.90
45319;DHT22;31057;48.498;32.260;2023-06-22T08:48:13;29.00;99.90
45319;DHT22;31057;48.498;32.260;2023-06-22T08:50:15;29.20;99.90
45319;DHT22;31057;48.498;32.260;2023-06-22T08:52:17;29.50;99.90
45319;DHT22;31057;48.498;32.260;2023-06-22T08:54:20;29.40;99.90
45319;DHT22;31057;48.498;32.260;2023-06-22T08:56:22;29.40;99.90
45319;DHT22;31057;48.498;32.260;2023-06-22T08:58:23;29.60;99.90
45319;DHT22;31057;48.498;32.260;2023-06-22T09:00:25;29.00;99.90
45319;DHT22;31057;48.498;32.260;2023-06-22T09:02:28;28.20;99.90
45319;DHT22;31057;48.498;32.260;2023-06-22T09:04:33;27.90;99.90
45319;DHT22;31057;48.498;32.260;2023-06-22T09:06:36;27.70;99.90
45319;DHT22;31057;48.498;32.260;2023-06-22T09:08:42;28.20;99.90
45319;DHT22;31057;48.498;32.260;2023-06-22T09:10:44;28.40;99.90
45319;DHT22;31057;48.498;32.260;2023-06-22T09:12:46;28.90;99.90
45319;DHT22;31057;48.498;32.260;2023-06-22T09:14:48;28.80;99.90
45319;DHT22;31057;48.498;32.260;2023-06-22T09:16:50;29.60;99.90
45319;DHT22;31057;48.498;32.260;2023-06-22T09:18:51;29.40;99.90
45319;DHT22;31057;48.498;32.260;2023-06-22T09:20:53;30.00;99.90
45319;DHT22;31057;48.498;32.260;2023-06-22T09:22:57;30.20;99.90
45319;DHT22;31057;48.498;32.260;2023-06-22T09:24:59;29.80;99.90
45319;DHT22;31057;48.498;32.260;2023-06-22T09:27:01;29.40;99.90
45319;DHT22;31057;48.498;32.260;2023-06-22T09:29:06;29.30;99.90
45319;DHT22;31057;48.498;32.260;2023-06-22T09:31:08;29.50;99.90
45319;DHT22;31057;48.498;32.260;2023-06-22T09:33:10;29.40;99.90
45319;DHT22;31057;48.498;32.260;2023-06-22T09:35:12;29.00;99.90
45319;DHT22;31057;48.498;32.260;2023-06-22T09:37:15;28.80;99.90
45319;DHT22;31057;48.498;32.260;2023-06-22T09:39:20;29.10;99.90
45319;DHT22;31057;48.498;32.260;2023-06-22T09:41:22;29.30;99.90
45319;DHT22;31057;48.498;32.260;2023-06-22T09:43:24;28.40;99.90
45319;DHT22;31057;48.498;32.260;2023-06-22T09:45:26;28.10;99.90
45319;DHT22;31057;48.498;32.260;2023-06-22T09:47:27;27.70;99.90
45319;DHT22;31057;48.498;32.260;2023-06-22T09:49:29;27.60;99.90
45319;DHT22;31057;48.498;32.260;2023-06-22T09:51:48;27.70;99.90
45319;DHT22;31057;48.498;32.260;2023-06-22T09:53:52;28.30;99.90
45319;DHT22;31057;48.498;32.260;2023-06-22T09:55:57;28.90;99.90
45319;DHT22;31057;48.498;32.260;2023-06-22T09:57:59;29.20;99.90
45319;DHT22;31057;48.498;32.260;2023-06-22T10:00:01;29.90;99.90
45319;DHT22;31057;48.498;32.260;2023-06-22T10:02:03;29.60;99.90
45319;DHT22;31057;48.498;32.260;2023-06-22T10:04:05;29.50;99.90
45319;DHT22;31057;48.498;32.260;2023-06-22T10:06:07;29.30;99.90
45319;DHT22;31057;48.498;32.260;2023-06-22T10:08:10;29.30;99.90
45319;DHT22;31057;48.498;32.260;2023-06-22T10:10:12;29.20;99.90
45319;DHT22;31057;48.498;32.260;2023-06-22T10:12:14;28.50;99.90
45319;DHT22;31057;48.498;32.260;2023-06-22T10:14:15;28.80;99.90
45319;DHT22;31057;48.498;32.260;2023-06-22T10:16:18;29.30;99.90
45319;DHT22;31057;48.498;32.260;2023-06-22T10:18:20;29.80;99.90
45319;DHT22;31057;48.498;32.260;2023-06-22T10:20:22;30.00;99.90
45319;DHT22;31057;48.498;32.260;2023-06-22T10:22:24;29.90;99.90
45319;DHT22;31057;48.498;32.260;2023-06-22T10:24:26;29.60;99.90
45319;DHT22;31057;48.498;32.260;2023-06-22T10:26:27;30.10;99.90
45319;DHT22;31057;48.498;32.260;2023-06-22T10:28:30;30.30;99.90
45319;DHT22;31057;48.498;32.260;2023-06-22T10:30:33;30.60;99.90
45319;DHT22;31057;48.498;32.260;2023-06-22T10:32:37;30.40;99.90
45319;DHT22;31057;48.498;32.260;2023-06-22T10:34:39;29.80;99.90
45319;DHT22;31057;48.498;32.260;2023-06-22T10:36:40;29.50;99.90
45319;DHT22;31057;48.498;32.260;2023-06-22T10:38:42;29.30;99.90
45319;DHT22;31057;48.498;32.260;2023-06-22T10:40:44;29.20;99.90
45319;DHT22;31057;48.498;32.260;2023-06-22T10:42:46;29.10;99.90
45319;DHT22;31057;48.498;32.260;2023-06-22T10:44:48;29.90;99.90
45319;DHT22;31057;48.498;32.260;2023-06-22T10:46:49;30.70;99.90
45319;DHT22;31057;48.498;32.260;2023-06-22T10:48:51;30.80;99.90
45319;DHT22;31057;48.498;32.260;2023-06-22T10:50:56;30.70;99.90
45319;DHT22;31057;48.498;32.260;2023-06-22T10:52:58;30.60;99.90
45319;DHT22;31057;48.498;32.260;2023-06-22T10:55:01;30.40;99.90
45319;DHT22;31057;48.498;32.260;2023-06-22T10:57:03;30.30;99.90
45319;DHT22;31057;48.498;32.260;2023-06-22T10:59:05;30.50;99.90
45319;DHT22;31057;48.498;32.260;2023-06-22T11:01:06;30.70;99.90
45319;DHT22;31057;48.498;32.260;2023-06-22T11:03:13;30.50;99.90
45319;DHT22;31057;48.498;32.260;2023-06-22T11:05:16;31.10;99.90
45319;DHT22;31057;48.498;32.260;2023-06-22T11:07:17;31.10;99.90
45319;DHT22;31057;48.498;32.260;2023-06-22T11:09:20;31.10;99.90
45319;DHT22;31057;48.498;32.260;2023-06-22T11:11:29;31.00;99.90
45319;DHT22;31057;48.498;32.260;2023-06-22T11:13:32;30.40;99.90
45319;DHT22;31057;48.498;32.260;2023-06-22T11:15:34;30.70;99.90
45319;DHT22;31057;48.498;32.260;2023-06-22T11:17:36;30.80;99.90
45319;DHT22;31057;48.498;32.260;2023-06-22T11:19:38;30.80;99.90
45319;DHT22;31057;48.498;32.260;2023-06-22T11:21:40;30.20;99.90
45319;DHT22;31057;48.498;32.260;2023-06-22T11:23:42;30.10;99.90
45319;DHT22;31057;48.498;32.260;2023-06-22T11:25:44;30.20;99.90
45319;DHT22;31057;48.498;32.260;2023-06-22T11:27:47;30.20;99.90
45319;DHT22;31057;48.498;32.260;2023-06-22T11:29:50;30.00;99.90
45319;DHT22;31057;48.498;32.260;2023-06-22T11:31:52;29.90;99.90
45319;DHT22;31057;48.498;32.260;2023-06-22T11:33:54;29.60;99.90
45319;DHT22;31057;48.498;32.260;2023-06-22T11:35:56;29.30;99.90
45319;DHT22;31057;48.498;32.260;2023-06-22T11:37:58;28.90;99.90
45319;DHT22;31057;48.498;32.260;2023-06-22T11:40:00;29.00;99.90
45319;DHT22;31057;48.498;32.260;2023-06-22T11:42:06;28.90;99.90
45319;DHT22;31057;48.498;32.260;2023-06-22T11:44:08;28.70;99.90
45319;DHT22;31057;48.498;32.260;2023-06-22T11:46:12;28.40;99.90
45319;DHT22;31057;48.498;32.260;2023-06-22T11:48:14;28.00;99.90
45319;DHT22;31057;48.498;32.260;2023-06-22T11:50:16;28.00;99.90
45319;DHT22;31057;48.498;32.260;2023-06-22T11:52:18;27.80;99.90
45319;DHT22;31057;48.498;32.260;2023-06-22T11:54:20;27.70;99.90
45319;DHT22;31057;48.498;32.260;2023-06-22T11:56:22;27.60;99.90
45319;DHT22;31057;48.498;32.260;2023-06-22T11:58:24;27.40;99.90
45319;DHT22;31057;48.498;32.260;2023-06-22T12:00:26;27.30;99.90
45319;DHT22;31057;48.498;32.260;2023-06-22T12:02:31;27.20;99.90
45319;DHT22;31057;48.498;32.260;2023-06-22T12:04:33;27.00;99.90
45319;DHT22;31057;48.498;32.260;2023-06-22T12:06:35;26.60;99.90
45319;DHT22;31057;48.498;32.260;2023-06-22T12:08:39;26.20;99.90
45319;DHT22;31057;48.498;32.260;2023-06-22T12:10:41;24.60;99.90
45319;DHT22;31057;48.498;32.260;2023-06-22T12:12:43;23.10;99.90
45319;DHT22;31057;48.498;32.260;2023-06-22T12:14:45;23.10;99.90
45319;DHT22;31057;48.498;32.260;2023-06-22T12:16:48;22.50;99.90
45319;DHT22;31057;48.498;32.260;2023-06-22T12:18:50;20.10;99.90
45319;DHT22;31057;48.498;32.260;2023-06-22T12:20:51;20.00;99.90
45319;DHT22;31057;48.498;32.260;2023-06-22T12:22:53;20.00;99.90
45319;DHT22;31057;48.498;32.260;2023-06-22T12:24:57;19.80;99.90
45319;DHT22;31057;48.498;32.260;2023-06-22T12:26:59;20.20;99.90
45319;DHT22;31057;48.498;32.260;2023-06-22T12:29:01;19.90;99.90
45319;DHT22;31057;48.498;32.260;2023-06-22T12:31:03;19.90;99.90
45319;DHT22;31057;48.498;32.260;2023-06-22T12:33:05;19.80;99.90
45319;DHT22;31057;48.498;32.260;2023-06-22T12:35:07;19.20;99.90
45319;DHT22;31057;48.498;32.260;2023-06-22T12:37:13;20.00;99.90
45319;DHT22;31057;48.498;32.260;2023-06-22T12:39:15;18.10;99.90
45319;DHT22;31057;48.498;32.260;2023-06-22T12:41:17;19.00;99.90
45319;DHT22;31057;48.498;32.260;2023-06-22T12:43:19;19.30;99.90
45319;DHT22;31057;48.498;32.260;2023-06-22T12:45:20;19.50;99.90
45319;DHT22;31057;48.498;32.260;2023-06-22T12:47:23;19.40;99.90
45319;DHT22;31057;48.498;32.260;2023-06-22T12:49:25;19.40;99.90